首页
METAR-TAF:

METAR-TAF

机场 :

Key Lake, 薩斯喀徹溫, 加拿大

纬度: 57-15N, 经度: 105-37W, 海拔: 509米

当前天气观测

该预报发布于38分钟前的02:00 UTC
风速5节,风向
温度 -14°C
湿度 92%
气压 1005 hPa
能見度: 14.5公里
多云层高于13000英尺

METAR: CYKJ 210200Z AUTO 18005KT 9SM BKN130 M14/M15 A2968 RMK SLP100

时间: 20:38 (02:38 UTC)

预报

该预报发布于5小时和27分钟前的21:11 UTC
预报有效从20日的 21点(UTC)到 20日的 24点(UTC)
风速5节,风向西南
能見度: 10公里
多云层高于800英尺
短暂存在
从 20日的 21点(UTC)到 20日的 24点(UTC)
散云层高于800英尺
多云层高于24000英尺

TAF: CYKJ 202111Z 2021/2024 22005KT P6SM BKN008 TEMPO 2021/2024 SCT008 BKN240 RMK FCST BASED ON AUTO OBS. NXT FCST WILL BE ISSUED AT 210945Z

超过4000个机场的气象观测和天气预报(METAR&TAF报告)。

可查询的气象台以黄色和红色小点在地图上表示。

将鼠标移到小点上方,可查看气象台名称。

然后点击查看天气观测和预报。

如需切换地图:点击带黑十字的绿色按钮放大地图;点击带横线的绿色按钮缩小地图;或者点击绿色箭头查看邻近地区的地图。


METAR-TAF: